Main page
METAR-TAF:

METAR-TAF

Airports :

Denton Enterprise Airport

Denton, Texas, United States

latitude: 33-12-22N, longitude: 097-11-56W, elevation: 640 ft

Current weather observation

The report was made 21 hours and 35 minutes ago, at 21:53 UTC
Wind 3 mph from the Southeast
Temperature 95°F
Humidity 37%
Pressure 29.93 in. Hg
Visibility: 10 miles
Clear sky

METAR: KDTO 142153Z 14003KT 10SM CLR 35/18 A2993 RMK AO2 SLP124 T03500183

Time: 14:28 (19:28 UTC)


TAF: missing

Weather observations and forecasts of more than 4000 airports (METAR and TAF reports).

The available stations are represented by yellow and red dots on the map.

Hover mouse over dot to see the name of the station.

Then click to see weather observations and forecasts.

To change the map : click on the green buttons with a black cross to zoom in, on the green button with a dash to zoom out, or on the green arrows for adjacent maps.


METAR-TAF: